Terminal Aerodrome Forecast
Issued by NWS Charleston, WV

Current Version | Previous Version | Text Only | Print | Product List | Glossary Off
Versions: 1 2 3 4 5 6 7 8 9 10 11 12 13 14 15 16 17 18 19 20 21 22 23 24 25

339
FTUS41 KRLX 171121
TAFEKN
TAF
KEKN 171121Z 1712/1812 32003KT 6SM BR BKN035
     FM171400 15003KT P6SM FEW025 BKN150
     FM171800 18004KT P6SM -RA OVC150
     FM180200 24004KT 3SM -RASN OVC008
     FM180600 28008KT P6SM BKN010=

USA.gov is the U.S. government's official web portal to all federal, state and local government web resources and services.